Time;durP1;ratioP1;P1;durP2;ratioP2;P2;SDS_P1;SDS_P2;PMS_P1;PMS_P2;Temp;Humidity;BMP_temperature;BMP_pressure;BME280_temperature;BME280_humidity;BME280_pressure;Samples;Min_cycle;Max_cycle;Signal;HPM_P1;HPM_P2
2021/03/20 00:00:19;;;;;;;3.67;2.40;;;3.20;80.40;;;;;;2071119;28;20038;-87
2021/03/20 00:01:24;;;;;;;6.72;2.80;;;3.10;80.40;;;;;;2071358;28;20560;-86
2021/03/20 00:02:24;;;;;;;5.90;3.17;;;3.10;80.50;;;;;;2073591;28;20026;-87
2021/03/20 00:03:25;;;;;;;5.05;2.90;;;3.10;80.40;;;;;;2066524;28;20481;-87
2021/03/20 00:04:26;;;;;;;6.65;3.10;;;3.10;80.40;;;;;;2057909;28;20109;-87
2021/03/20 00:05:26;;;;;;;4.10;2.70;;;3.10;80.40;;;;;;2065808;28;20416;-87
2021/03/20 00:06:31;;;;;;;5.03;2.88;;;3.20;80.40;;;;;;2079220;28;20029;-87
2021/03/20 00:07:32;;;;;;;5.20;2.92;;;3.20;80.50;;;;;;2090361;28;20026;-86
2021/03/20 00:08:34;;;;;;;5.00;3.03;;;3.20;80.40;;;;;;2083255;28;20030;-86
2021/03/20 00:09:34;;;;;;;5.85;3.15;;;3.20;80.40;;;;;;2076779;28;20050;-86
2021/03/20 00:10:35;;;;;;;5.20;2.60;;;3.20;81.00;;;;;;2075355;28;20031;-86
2021/03/20 00:11:38;;;;;;;5.13;2.97;;;3.20;80.40;;;;;;2065394;28;20030;-85
2021/03/20 00:12:39;;;;;;;4.85;2.60;;;3.20;80.50;;;;;;2082642;28;20017;-86
2021/03/20 00:13:41;;;;;;;5.18;2.72;;;3.20;80.50;;;;;;2070093;28;20022;-86
2021/03/20 00:14:41;;;;;;;5.55;2.95;;;3.10;80.50;;;;;;2065174;28;20065;-86
2021/03/20 00:15:42;;;;;;;4.10;2.60;;;3.10;80.50;;;;;;2066119;28;20030;-86
2021/03/20 00:16:44;;;;;;;5.95;2.95;;;3.20;80.60;;;;;;2073856;28;20366;-86
2021/03/20 00:17:44;;;;;;;4.38;2.75;;;3.10;80.60;;;;;;2082426;28;20032;-86
2021/03/20 00:18:45;;;;;;;6.05;2.53;;;3.10;80.60;;;;;;2065891;28;20500;-86
2021/03/20 00:19:46;;;;;;;4.50;2.63;;;3.10;80.70;;;;;;2057930;28;20113;-86
2021/03/20 00:20:47;;;;;;;5.45;2.70;;;3.10;80.60;;;;;;2058237;28;20042;-87
2021/03/20 00:21:49;;;;;;;5.82;2.80;;;3.10;80.70;;;;;;2081995;28;20141;-86
2021/03/20 00:22:50;;;;;;;5.45;2.90;;;3.10;80.70;;;;;;2069931;28;20574;-86
2021/03/20 00:23:51;;;;;;;5.63;2.95;;;3.10;80.60;;;;;;2064922;28;20436;-86
2021/03/20 00:24:52;;;;;;;4.72;2.50;;;3.10;80.60;;;;;;2056479;28;20161;-86
2021/03/20 00:25:54;;;;;;;4.72;2.65;;;3.10;80.60;;;;;;2075127;28;20033;-86
2021/03/20 00:26:54;;;;;;;6.00;3.25;;;3.10;80.60;;;;;;2056463;28;20070;-83
2021/03/20 00:27:56;;;;;;;4.18;2.75;;;3.10;80.50;;;;;;2066485;28;20027;-83
2021/03/20 00:28:56;;;;;;;4.57;2.63;;;3.10;80.50;;;;;;2066146;28;20050;-83
2021/03/20 00:29:57;;;;;;;4.78;2.75;;;3.10;80.50;;;;;;2066144;28;20069;-84
2021/03/20 00:31:03;;;;;;;4.88;2.70;;;3.10;80.50;;;;;;2063741;28;20026;-84
2021/03/20 00:32:04;;;;;;;5.15;2.92;;;3.20;80.50;;;;;;2068684;28;20022;-84
2021/03/20 00:33:05;;;;;;;5.20;2.83;;;3.20;80.50;;;;;;2067811;28;20407;-84
2021/03/20 00:34:05;;;;;;;4.63;2.70;;;3.20;80.50;;;;;;2060189;28;20514;-85
2021/03/20 00:35:08;;;;;;;3.95;2.58;;;3.20;80.40;;;;;;2058740;28;20030;-84
2021/03/20 00:36:10;;;;;;;4.20;2.75;;;3.20;80.40;;;;;;2061933;28;20756;-84
2021/03/20 00:37:12;;;;;;;5.03;2.90;;;3.20;80.40;;;;;;2057550;28;20023;-84
2021/03/20 00:38:13;;;;;;;5.38;2.85;;;3.20;80.40;;;;;;2065392;28;20116;-84
2021/03/20 00:39:14;;;;;;;3.63;2.55;;;3.20;80.40;;;;;;2058409;28;20061;-84
2021/03/20 00:40:21;;;;;;;6.57;2.70;;;3.20;80.30;;;;;;2066049;28;20030;-84
2021/03/20 00:41:22;;;;;;;4.78;3.00;;;3.20;80.30;;;;;;2066865;28;20026;-84
2021/03/20 00:42:23;;;;;;;4.18;2.70;;;3.20;80.30;;;;;;2070178;28;20124;-84
2021/03/20 00:43:25;;;;;;;4.53;2.60;;;3.20;80.20;;;;;;2065318;28;20081;-84
2021/03/20 00:44:26;;;;;;;4.85;2.85;;;3.20;80.20;;;;;;2058062;28;20026;-84
2021/03/20 00:45:28;;;;;;;4.97;2.70;;;3.20;80.20;;;;;;2066861;28;20034;-83
2021/03/20 00:46:29;;;;;;;4.57;2.90;;;3.20;80.20;;;;;;2081900;28;20404;-83
2021/03/20 00:47:30;;;;;;;4.80;2.90;;;3.20;80.80;;;;;;2066650;28;20082;-84
2021/03/20 00:48:33;;;;;;;5.30;2.90;;;3.20;80.20;;;;;;2057603;28;20035;-83
2021/03/20 00:49:34;;;;;;;5.10;3.00;;;3.20;80.30;;;;;;2066316;28;20023;-84
2021/03/20 00:50:35;;;;;;;5.47;3.30;;;3.20;80.30;;;;;;2076474;28;20112;-84
2021/03/20 00:51:36;;;;;;;6.30;2.95;;;3.20;80.30;;;;;;2082150;28;20048;-85
2021/03/20 00:52:37;;;;;;;4.22;2.90;;;3.20;80.40;;;;;;2064397;28;20073;-85
2021/03/20 00:53:38;;;;;;;5.70;3.30;;;3.10;80.30;;;;;;2073992;28;20104;-84
2021/03/20 00:54:38;;;;;;;5.15;3.15;;;3.10;80.30;;;;;;2073982;28;20159;-84
2021/03/20 00:55:40;;;;;;;4.95;2.67;;;3.10;80.30;;;;;;2063476;28;20038;-84
2021/03/20 00:56:41;;;;;;;4.88;2.70;;;3.10;80.90;;;;;;2073013;28;20065;-85
2021/03/20 00:57:42;;;;;;;4.03;2.63;;;3.10;80.30;;;;;;2069953;28;20030;-85
2021/03/20 00:58:43;;;;;;;4.90;2.83;;;3.10;80.40;;;;;;2073885;28;20500;-85
2021/03/20 00:59:43;;;;;;;4.88;3.03;;;3.10;80.40;;;;;;2073705;28;20033;-84
2021/03/20 01:00:44;;;;;;;4.30;2.85;;;3.10;80.40;;;;;;2063060;28;20544;-84
2021/03/20 01:01:45;;;;;;;4.45;2.75;;;3.00;80.40;;;;;;2065683;28;20038;-85
2021/03/20 01:02:46;;;;;;;5.53;3.08;;;3.00;80.40;;;;;;2057456;28;20057;-85
2021/03/20 01:03:48;;;;;;;4.97;3.05;;;3.00;80.50;;;;;;2057508;28;20030;-85
2021/03/20 01:04:49;;;;;;;4.82;2.65;;;3.00;80.50;;;;;;2073628;28;20034;-86
2021/03/20 01:05:49;;;;;;;5.10;3.10;;;3.00;80.50;;;;;;2064583;28;20118;-84
2021/03/20 01:06:50;;;;;;;6.07;3.00;;;3.00;80.50;;;;;;2064527;28;20034;-85
2021/03/20 01:07:51;;;;;;;5.63;2.90;;;3.00;80.50;;;;;;2073029;28;20033;-86
2021/03/20 01:08:54;;;;;;;4.97;3.00;;;2.90;80.50;;;;;;2065730;28;20099;-85
2021/03/20 01:09:54;;;;;;;6.18;3.28;;;3.00;80.60;;;;;;2065399;28;20077;-85
2021/03/20 01:10:55;;;;;;;4.78;3.05;;;2.90;80.60;;;;;;2062858;28;20081;-85
2021/03/20 01:11:55;;;;;;;4.75;2.80;;;2.90;80.70;;;;;;2049669;28;20419;-85
2021/03/20 01:12:56;;;;;;;4.78;2.85;;;2.90;80.70;;;;;;2052613;28;20087;-85
2021/03/20 01:13:58;;;;;;;4.88;2.72;;;2.80;80.70;;;;;;2065677;28;20041;-85
2021/03/20 01:14:58;;;;;;;4.25;2.88;;;2.80;80.70;;;;;;2057142;28;20030;-85
2021/03/20 01:16:00;;;;;;;4.40;2.72;;;2.80;80.70;;;;;;2057367;28;20031;-85
2021/03/20 01:17:01;;;;;;;4.60;2.55;;;2.80;80.80;;;;;;2065644;28;20019;-85
2021/03/20 01:18:01;;;;;;;4.28;2.63;;;2.80;80.90;;;;;;2065482;28;20121;-85
2021/03/20 01:19:03;;;;;;;5.13;2.63;;;2.80;80.80;;;;;;2065669;28;20026;-85
2021/03/20 01:20:05;;;;;;;4.63;2.90;;;2.70;80.80;;;;;;2064362;28;20508;-85
2021/03/20 01:21:07;;;;;;;6.80;3.25;;;2.70;80.80;;;;;;2083271;28;20104;-85
2021/03/20 01:22:07;;;;;;;5.38;2.83;;;2.70;80.90;;;;;;2077198;28;20088;-85
2021/03/20 01:23:08;;;;;;;4.90;2.83;;;2.70;80.90;;;;;;2063710;28;20033;-84
2021/03/20 01:24:10;;;;;;;4.63;2.90;;;2.70;80.90;;;;;;2065127;28;20493;-85
2021/03/20 01:25:11;;;;;;;7.25;2.67;;;2.70;81.00;;;;;;2064180;28;20022;-84
2021/03/20 01:26:12;;;;;;;4.20;2.60;;;2.60;80.90;;;;;;2064932;28;20038;-85
2021/03/20 01:27:12;;;;;;;4.82;3.05;;;2.60;81.00;;;;;;2072486;28;20026;-84
2021/03/20 01:28:13;;;;;;;5.13;2.85;;;2.60;81.00;;;;;;2065238;28;20035;-85
2021/03/20 01:29:14;;;;;;;4.75;2.95;;;2.60;81.00;;;;;;2063607;28;20023;-84
2021/03/20 01:30:19;;;;;;;7.25;3.08;;;2.60;81.10;;;;;;2065330;28;20026;-84
2021/03/20 01:31:19;;;;;;;4.55;2.75;;;2.60;81.10;;;;;;2057793;28;20042;-84
2021/03/20 01:32:20;;;;;;;4.25;2.30;;;2.60;81.10;;;;;;2071135;28;20452;-84
2021/03/20 01:33:20;;;;;;;4.93;2.88;;;2.50;81.10;;;;;;2073014;28;20436;-85
2021/03/20 01:34:21;;;;;;;4.35;2.70;;;2.50;81.10;;;;;;2064421;28;20085;-84
2021/03/20 01:35:22;;;;;;;4.72;2.95;;;2.50;81.10;;;;;;2057087;28;20174;-85
2021/03/20 01:36:23;;;;;;;4.28;2.65;;;2.50;81.10;;;;;;2064409;28;20025;-84
2021/03/20 01:37:23;;;;;;;4.47;2.42;;;2.50;81.20;;;;;;2061675;28;20489;-84
2021/03/20 01:38:24;;;;;;;4.30;2.72;;;2.50;81.20;;;;;;2065283;28;20070;-85
2021/03/20 01:39:25;;;;;;;6.22;2.70;;;2.40;81.10;;;;;;2073151;28;20120;-85
2021/03/20 01:40:30;;;;;;;5.70;3.05;;;2.40;81.20;;;;;;2056221;28;20456;-85
2021/03/20 01:41:31;;;;;;;8.02;2.75;;;2.40;81.20;;;;;;2066133;28;20022;-85
2021/03/20 01:42:32;;;;;;;3.92;2.25;;;2.40;81.20;;;;;;2073047;28;20096;-84
2021/03/20 01:43:35;;;;;;;4.18;2.72;;;2.40;81.10;;;;;;2065365;28;20022;-85
2021/03/20 01:44:36;;;;;;;4.43;2.50;;;2.50;81.30;;;;;;2065476;28;20425;-84
2021/03/20 01:45:37;;;;;;;6.03;2.90;;;2.40;81.10;;;;;;2066156;28;20141;-85
2021/03/20 01:46:46;;;;;;;5.90;2.60;;;2.40;81.10;;;;;;2080362;28;20470;-85
2021/03/20 01:47:55;;;;;;;4.00;2.53;;;2.40;81.10;;;;;;2073688;28;20045;-85
2021/03/20 01:48:56;;;;;;;4.95;2.92;;;2.40;81.10;;;;;;2073761;28;20022;-85
2021/03/20 01:49:58;;;;;;;4.50;2.60;;;2.40;81.10;;;;;;2072368;28;20080;-85
2021/03/20 01:51:00;;;;;;;4.00;2.40;;;2.40;81.60;;;;;;2071967;28;20025;-86
2021/03/20 01:52:12;;;;;;;5.85;2.50;;;2.40;81.60;;;;;;2065294;28;20018;-85
2021/03/20 01:53:35;;;;;;;3.80;2.47;;;2.40;81.00;;;;;;2069365;28;20026;-85
2021/03/20 01:54:44;;;;;;;5.20;2.65;;;2.40;81.10;;;;;;2074866;28;20026;-85
2021/03/20 01:55:45;;;;;;;4.18;2.45;;;2.40;81.00;;;;;;2072666;28;20041;-85
2021/03/20 01:56:46;;;;;;;4.30;2.58;;;2.40;81.00;;;;;;2065285;28;20041;-85
2021/03/20 01:57:52;;;;;;;4.90;2.85;;;2.40;81.00;;;;;;2068069;28;20481;-85
2021/03/20 01:58:53;;;;;;;5.50;2.67;;;2.30;80.90;;;;;;2073221;28;20055;-85
2021/03/20 01:59:55;;;;;;;3.40;2.38;;;2.30;81.00;;;;;;2067584;28;20487;-85
2021/03/20 02:01:08;;;;;;;4.00;2.30;;;2.30;81.00;;;;;;2063319;28;20113;-84
2021/03/20 02:02:09;;;;;;;4.38;2.42;;;2.30;81.00;;;;;;2052563;28;20109;-85
2021/03/20 02:03:13;;;;;;;3.65;2.28;;;2.30;81.00;;;;;;2063720;28;20031;-85
2021/03/20 02:04:15;;;;;;;4.80;2.58;;;2.30;81.00;;;;;;2073387;28;20037;-85
2021/03/20 02:05:24;;;;;;;4.45;2.30;;;2.30;81.00;;;;;;2064965;28;20457;-85
2021/03/20 02:06:26;;;;;;;4.40;2.22;;;2.30;81.00;;;;;;2063504;28;20053;-85
2021/03/20 02:07:26;;;;;;;3.95;2.42;;;2.20;80.90;;;;;;2063755;28;20042;-85
2021/03/20 02:08:28;;;;;;;5.97;2.75;;;2.30;81.00;;;;;;2073104;28;20459;-85
2021/03/20 02:09:29;;;;;;;4.55;2.28;;;2.20;80.90;;;;;;2064473;28;20065;-84
2021/03/20 02:10:33;;;;;;;4.25;2.50;;;2.20;80.90;;;;;;2048105;28;20052;-84
2021/03/20 02:11:52;;;;;;;4.18;2.40;;;2.20;80.90;;;;;;2049954;28;20034;-84
2021/03/20 02:13:03;;;;;;;4.80;2.47;;;2.20;80.80;;;;;;2072187;28;20061;-84
2021/03/20 02:14:31;;;;;;;4.22;2.40;;;2.20;80.80;;;;;;2065773;28;20078;-85
2021/03/20 02:15:36;;;;;;;3.58;1.95;;;2.20;80.80;;;;;;2075379;28;20080;-84
2021/03/20 02:16:55;;;;;;;4.15;2.30;;;2.20;80.70;;;;;;2081390;28;20503;-84
2021/03/20 02:18:05;;;;;;;3.50;2.05;;;2.20;80.70;;;;;;2077623;28;20033;-85
2021/03/20 02:19:17;;;;;;;3.33;2.05;;;2.20;80.60;;;;;;2089340;28;20072;-85
2021/03/20 02:20:56;;;;;;;3.22;1.95;;;2.20;80.70;;;;;;2080079;28;20025;-84
2021/03/20 02:22:05;;;;;;;4.05;2.25;;;2.20;80.70;;;;;;2065061;28;20404;-84
2021/03/20 02:23:09;;;;;;;3.63;2.05;;;2.10;80.50;;;;;;2068366;28;20031;-84
2021/03/20 02:24:34;;;;;;;3.78;1.98;;;2.10;80.60;;;;;;2081340;28;20018;-84
2021/03/20 02:25:59;;;;;;;3.47;1.90;;;2.10;80.60;;;;;;2078843;28;20388;-84
2021/03/20 02:27:37;;;;;;;3.30;2.00;;;2.10;80.60;;;;;;2073852;28;20526;-83
2021/03/20 02:28:59;;;;;;;3.47;1.80;;;2.00;80.60;;;;;;2078971;28;20521;-84
2021/03/20 02:30:22;;;;;;;3.13;1.90;;;2.00;80.60;;;;;;2075910;28;20067;-84
2021/03/20 02:31:41;;;;;;;4.25;2.10;;;2.00;80.60;;;;;;2059804;28;20054;-84
2021/03/20 02:33:07;;;;;;;3.03;1.70;;;2.00;80.60;;;;;;2075408;28;20034;-84
2021/03/20 02:34:17;;;;;;;5.07;2.50;;;2.00;80.70;;;;;;2079590;28;20030;-84
2021/03/20 02:35:45;;;;;;;3.80;2.00;;;1.90;80.60;;;;;;2072366;28;20037;-83
2021/03/20 02:37:08;;;;;;;3.70;2.00;;;1.90;80.60;;;;;;2070441;28;20053;-84
2021/03/20 02:38:22;;;;;;;4.05;2.25;;;1.90;80.60;;;;;;2065013;28;20080;-84
2021/03/20 02:39:34;;;;;;;3.72;1.90;;;1.80;80.60;;;;;;2063911;28;20019;-84
2021/03/20 02:41:23;;;;;;;3.78;2.15;;;1.80;80.70;;;;;;2069546;28;20030;-83
2021/03/20 02:43:02;;;;;;;3.63;1.90;;;1.80;80.80;;;;;;2036001;29;20042;-85
2021/03/20 02:44:23;;;;;;;2.83;1.80;;;1.80;80.80;;;;;;2027569;29;21079;-85
2021/03/20 02:45:46;;;;;;;3.20;1.88;;;1.80;80.80;;;;;;2048858;29;20171;-85
2021/03/20 02:47:05;;;;;;;3.30;1.73;;;1.80;80.80;;;;;;2047684;28;20066;-85
2021/03/20 02:48:19;;;;;;;3.10;1.90;;;1.80;80.70;;;;;;2055852;28;20030;-85
2021/03/20 02:49:31;;;;;;;3.58;1.85;;;1.80;80.70;;;;;;2066719;28;20022;-85
2021/03/20 02:50:50;;;;;;;3.17;2.00;;;1.80;80.80;;;;;;2068046;28;20420;-85
2021/03/20 02:51:58;;;;;;;3.88;2.20;;;1.70;80.70;;;;;;2079971;28;20065;-86
2021/03/20 02:53:09;;;;;;;3.65;2.03;;;1.70;80.80;;;;;;2079438;28;20101;-86
2021/03/20 02:54:19;;;;;;;3.22;2.00;;;1.70;80.80;;;;;;2070469;28;20022;-86
2021/03/20 02:55:51;;;;;;;3.97;2.10;;;1.70;80.90;;;;;;2065852;28;20564;-85
2021/03/20 02:57:18;;;;;;;4.50;2.30;;;1.70;80.90;;;;;;2056332;28;20099;-86
2021/03/20 02:58:30;;;;;;;3.28;2.05;;;1.70;80.90;;;;;;2072590;28;20029;-86
2021/03/20 02:59:38;;;;;;;3.72;2.10;;;1.60;80.80;;;;;;2076783;28;20074;-85
2021/03/20 03:00:51;;;;;;;3.22;2.00;;;1.70;80.90;;;;;;2071193;28;20079;-86
2021/03/20 03:01:56;;;;;;;4.18;2.25;;;1.60;80.90;;;;;;2064853;28;20026;-85
2021/03/20 03:02:58;;;;;;;4.07;2.20;;;1.60;80.90;;;;;;2060605;28;20026;-85
2021/03/20 03:04:01;;;;;;;4.18;2.15;;;1.60;81.00;;;;;;2073136;28;20037;-86
2021/03/20 03:05:16;;;;;;;4.28;2.33;;;1.60;81.00;;;;;;2080944;28;20108;-85
2021/03/20 03:06:28;;;;;;;3.50;2.05;;;1.60;81.10;;;;;;2065894;28;20432;-86
2021/03/20 03:07:40;;;;;;;4.57;2.25;;;1.60;81.10;;;;;;2068010;28;20026;-86
2021/03/20 03:08:45;;;;;;;4.00;2.30;;;1.60;81.20;;;;;;2075419;28;20495;-86
2021/03/20 03:10:02;;;;;;;3.92;1.90;;;1.60;81.20;;;;;;2073792;28;20112;-85
2021/03/20 03:11:24;;;;;;;4.15;2.30;;;1.60;81.20;;;;;;2076533;28;20069;-85
2021/03/20 03:12:35;;;;;;;4.07;2.20;;;1.60;81.30;;;;;;2073412;28;20029;-85
2021/03/20 03:13:44;;;;;;;3.70;2.00;;;1.60;81.30;;;;;;2068698;28;20057;-86
2021/03/20 03:15:13;;;;;;;4.03;2.10;;;1.60;81.30;;;;;;2080958;28;20021;-86
2021/03/20 03:16:22;;;;;;;4.00;2.40;;;1.60;81.30;;;;;;2077822;28;20037;-86
2021/03/20 03:17:26;;;;;;;4.03;2.17;;;1.60;81.30;;;;;;2080134;28;20519;-86
2021/03/20 03:18:37;;;;;;;3.72;2.20;;;1.50;81.30;;;;;;2063934;28;20437;-86
2021/03/20 03:19:47;;;;;;;3.35;2.05;;;1.50;81.30;;;;;;2070113;28;20219;-85
2021/03/20 03:20:54;;;;;;;4.53;2.30;;;1.60;81.40;;;;;;2078210;28;20557;-85
2021/03/20 03:21:59;;;;;;;4.25;2.40;;;1.50;81.30;;;;;;2072872;28;20419;-84
2021/03/20 03:23:07;;;;;;;4.38;2.13;;;1.50;81.30;;;;;;2065861;28;20057;-85
2021/03/20 03:24:14;;;;;;;3.20;2.03;;;1.60;81.40;;;;;;2057727;28;20034;-84
2021/03/20 03:25:19;;;;;;;3.97;2.35;;;1.50;81.40;;;;;;2072231;28;20080;-85
2021/03/20 03:26:28;;;;;;;3.95;2.35;;;1.50;81.50;;;;;;2072839;28;20026;-85
2021/03/20 03:27:33;;;;;;;4.68;2.80;;;1.50;81.50;;;;;;2072994;28;20165;-84
2021/03/20 03:28:34;;;;;;;3.50;2.10;;;1.50;81.60;;;;;;2072890;28;20110;-84
2021/03/20 03:29:36;;;;;;;4.18;2.53;;;1.50;81.60;;;;;;2059340;28;20046;-84
2021/03/20 03:30:37;;;;;;;4.05;2.40;;;1.50;81.70;;;;;;2061712;28;20031;-84
2021/03/20 03:31:44;;;;;;;5.28;2.55;;;1.50;81.70;;;;;;2063714;28;20042;-84
2021/03/20 03:32:49;;;;;;;4.30;2.42;;;1.50;81.70;;;;;;2070176;28;20022;-84
2021/03/20 03:34:00;;;;;;;3.85;2.50;;;1.50;81.80;;;;;;2064192;28;20057;-84
2021/03/20 03:35:08;;;;;;;;;;;1.50;81.70;;;;;;2072099;28;20105;-84
2021/03/20 03:36:12;;;;;;;3.45;2.22;;;1.50;81.70;;;;;;2072906;28;19909;-84
2021/03/20 03:37:25;;;;;;;3.78;2.33;;;1.50;81.60;;;;;;2071897;28;20022;-83
2021/03/20 03:38:48;;;;;;;4.38;2.47;;;1.50;81.60;;;;;;2066316;28;20101;-85
2021/03/20 03:39:57;;;;;;;3.95;2.22;;;1.40;81.50;;;;;;2075536;28;20128;-85
2021/03/20 03:41:10;;;;;;;3.88;2.40;;;1.50;81.60;;;;;;2080749;28;20022;-84
2021/03/20 03:42:17;;;;;;;4.35;2.30;;;1.50;81.60;;;;;;2078530;28;20064;-84
2021/03/20 03:43:19;;;;;;;4.35;2.40;;;1.50;81.60;;;;;;2065308;28;20030;-84
2021/03/20 03:44:19;;;;;;;4.97;2.60;;;1.50;81.60;;;;;;2057230;28;20081;-84
2021/03/20 03:45:21;;;;;;;5.10;2.70;;;1.50;81.60;;;;;;2054530;28;20098;-84
2021/03/20 03:46:26;;;;;;;4.35;2.22;;;1.40;81.60;;;;;;2065337;28;20029;-84
2021/03/20 03:47:30;;;;;;;3.88;2.50;;;1.40;81.60;;;;;;2078125;28;20060;-84
2021/03/20 03:48:31;;;;;;;4.20;2.45;;;1.50;81.70;;;;;;2070037;28;20030;-85
2021/03/20 03:49:31;;;;;;;4.32;2.55;;;1.40;82.30;;;;;;2071571;28;20089;-85
2021/03/20 03:50:35;;;;;;;3.65;2.35;;;1.40;81.70;;;;;;2063875;28;20026;-85
2021/03/20 03:51:36;;;;;;;4.25;2.20;;;1.40;81.70;;;;;;2068425;28;20465;-84
2021/03/20 03:52:37;;;;;;;5.45;2.67;;;1.40;82.40;;;;;;2056471;28;20030;-85
2021/03/20 03:53:39;;;;;;;4.20;2.60;;;1.40;81.80;;;;;;2048003;28;20039;-84
2021/03/20 03:54:40;;;;;;;3.90;2.50;;;1.40;81.90;;;;;;2064160;28;20053;-84
2021/03/20 03:55:42;;;;;;;3.80;2.33;;;1.40;81.90;;;;;;2071007;28;20037;-84
2021/03/20 03:57:03;;;;;;;3.78;2.38;;;1.40;81.90;;;;;;2064684;28;20035;-84
2021/03/20 03:58:12;;;;;;;4.10;2.47;;;1.40;81.90;;;;;;2074213;28;20060;-83
2021/03/20 03:59:27;;;;;;;4.15;2.40;;;1.30;81.90;;;;;;2077658;28;20114;-83
2021/03/20 04:00:42;;;;;;;4.53;2.83;;;1.30;81.90;;;;;;2086607;28;20006;-85
2021/03/20 04:01:58;;;;;;;3.65;2.40;;;1.30;82.00;;;;;;2083199;28;20010;-83
2021/03/20 04:03:47;;;;;;;4.43;2.50;;;1.30;82.00;;;;;;2091328;28;20024;-84
2021/03/20 04:05:03;;;;;;;5.10;2.40;;;1.30;82.00;;;;;;2072790;28;20041;-84
2021/03/20 04:06:33;;;;;;;3.97;2.20;;;1.20;81.90;;;;;;2074821;28;20521;-85
2021/03/20 04:08:22;;;;;;;4.00;2.03;;;1.30;81.90;;;;;;2082433;28;20025;-84
2021/03/20 04:09:44;;;;;;;3.22;2.10;;;1.30;81.90;;;;;;2050520;28;20054;-84
2021/03/20 04:11:08;;;;;;;4.50;2.30;;;1.20;81.80;;;;;;2057731;28;20055;-86
2021/03/20 04:12:23;;;;;;;3.75;2.05;;;1.20;81.80;;;;;;2075300;28;20050;-84
2021/03/20 04:13:49;;;;;;;4.80;2.25;;;1.20;81.70;;;;;;2074561;28;20023;-84
2021/03/20 04:15:21;;;;;;;4.07;2.33;;;1.20;81.70;;;;;;2081447;28;20517;-85
2021/03/20 04:16:29;;;;;;;3.40;2.10;;;1.20;81.60;;;;;;2075285;28;20402;-84
2021/03/20 04:17:49;;;;;;;4.07;2.42;;;1.20;81.50;;;;;;2065930;28;20022;-84
2021/03/20 04:19:04;;;;;;;4.63;2.10;;;1.20;81.50;;;;;;2069490;28;20551;-84
2021/03/20 04:20:22;;;;;;;4.50;2.20;;;1.20;81.50;;;;;;2076171;28;20516;-84
2021/03/20 04:21:31;;;;;;;3.25;1.85;;;1.20;81.50;;;;;;2067627;28;20041;-83
2021/03/20 04:22:42;;;;;;;3.47;2.20;;;1.20;81.50;;;;;;2075459;28;20033;-84
2021/03/20 04:23:49;;;;;;;;;;;1.20;81.80;;;;;;2074209;28;20480;-84
2021/03/20 04:24:59;;;;;;;4.38;2.13;;;1.20;81.50;;;;;;2074395;28;19909;-84
2021/03/20 04:26:10;;;;;;;3.75;2.08;;;1.20;81.50;;;;;;2074223;28;20099;-84
2021/03/20 04:27:26;;;;;;;2.95;1.92;;;1.20;81.50;;;;;;2067963;28;20061;-84
2021/03/20 04:28:51;;;;;;;3.22;1.90;;;1.10;81.50;;;;;;2074359;28;20444;-84
2021/03/20 04:29:59;;;;;;;3.38;2.08;;;1.10;81.60;;;;;;2076503;28;20029;-84
2021/03/20 04:31:35;;;;;;;2.95;1.80;;;1.10;81.60;;;;;;2083715;28;20006;-84
2021/03/20 04:32:48;;;;;;;5.13;2.50;;;1.10;81.60;;;;;;2083903;28;20034;-84
2021/03/20 04:34:01;;;;;;;3.88;1.98;;;1.10;81.60;;;;;;2074491;28;20002;-83
2021/03/20 04:35:13;;;;;;;3.80;2.30;;;1.10;81.70;;;;;;2068487;28;20026;-85
2021/03/20 04:36:19;;;;;;;4.22;1.95;;;1.10;81.70;;;;;;2074229;28;20038;-84
2021/03/20 04:37:23;;;;;;;4.45;2.20;;;1.10;81.70;;;;;;2073786;28;20022;-84
2021/03/20 04:38:25;;;;;;;3.97;2.22;;;1.10;81.80;;;;;;2058760;28;20019;-84
2021/03/20 04:39:29;;;;;;;3.95;2.25;;;1.10;81.80;;;;;;2065458;28;20034;-84
2021/03/20 04:40:51;;;;;;;5.35;2.60;;;1.10;81.80;;;;;;2065879;28;20039;-84
2021/03/20 04:41:53;;;;;;;3.53;2.10;;;1.10;81.90;;;;;;2070722;28;20030;-84
2021/03/20 04:42:56;;;;;;;5.50;2.30;;;1.10;81.90;;;;;;2073582;28;20400;-84
2021/03/20 04:43:57;;;;;;;4.20;2.35;;;1.00;81.80;;;;;;2064203;28;20102;-84
2021/03/20 04:45:23;;;;;;;3.78;2.10;;;1.00;81.80;;;;;;2068757;28;20023;-84
2021/03/20 04:46:29;;;;;;;3.60;2.25;;;1.00;81.80;;;;;;2073491;28;20188;-84
2021/03/20 04:47:34;;;;;;;4.40;2.25;;;1.10;81.90;;;;;;2065674;28;20047;-84
2021/03/20 04:48:38;;;;;;;3.95;2.13;;;1.00;81.70;;;;;;2073561;28;20030;-83
2021/03/20 04:49:41;;;;;;;3.88;2.30;;;1.10;81.80;;;;;;2073931;28;20014;-84
2021/03/20 04:50:45;;;;;;;3.25;2.05;;;1.10;81.80;;;;;;2068983;28;20036;-84
2021/03/20 04:51:51;;;;;;;4.10;2.35;;;1.00;81.70;;;;;;2065757;28;20133;-84
2021/03/20 04:52:53;;;;;;;3.45;2.40;;;1.00;81.70;;;;;;2073856;28;20453;-84
2021/03/20 04:54:10;;;;;;;3.28;1.98;;;1.00;81.70;;;;;;2076921;28;20029;-84
2021/03/20 04:55:12;;;;;;;3.58;1.92;;;1.00;81.70;;;;;;2075744;28;20026;-84
2021/03/20 04:56:18;;;;;;;3.78;2.10;;;1.00;81.70;;;;;;2074544;28;20105;-84
2021/03/20 04:57:19;;;;;;;3.25;1.88;;;1.00;81.70;;;;;;2065573;28;20054;-84
2021/03/20 04:58:36;;;;;;;3.38;2.20;;;1.00;81.60;;;;;;2068244;28;20534;-84
2021/03/20 05:00:06;;;;;;;3.30;2.10;;;1.00;81.70;;;;;;2073537;28;20030;-84
2021/03/20 05:01:35;;;;;;;3.53;2.28;;;1.00;81.60;;;;;;2080128;28;20048;-84
2021/03/20 05:02:48;;;;;;;3.47;2.00;;;1.00;82.20;;;;;;2089039;28;20028;-84
2021/03/20 05:03:56;;;;;;;4.82;2.20;;;1.00;81.60;;;;;;2066081;28;20014;-82
2021/03/20 05:05:02;;;;;;;3.47;2.25;;;1.00;81.60;;;;;;2065761;28;20045;-84
2021/03/20 05:06:11;;;;;;;3.47;2.15;;;1.00;81.60;;;;;;2058205;28;20465;-84
2021/03/20 05:07:14;;;;;;;3.45;2.10;;;1.00;81.70;;;;;;2072569;28;20476;-84
2021/03/20 05:08:29;;;;;;;3.45;2.00;;;1.00;81.70;;;;;;2072639;28;20025;-84
2021/03/20 05:09:31;;;;;;;3.70;2.03;;;1.00;81.70;;;;;;2074020;28;20388;-83
2021/03/20 05:10:41;;;;;;;3.03;2.00;;;1.00;81.60;;;;;;2081528;28;20392;-84
2021/03/20 05:11:51;;;;;;;;;;;1.00;81.50;;;;;;2082030;28;20426;-84
2021/03/20 05:12:52;;;;;;;4.05;2.08;;;1.00;81.50;;;;;;2079042;28;20343;-84
2021/03/20 05:14:24;;;;;;;3.10;1.90;;;1.00;81.30;;;;;;2079636;28;20145;-84
2021/03/20 05:15:29;;;;;;;3.55;2.13;;;1.00;81.30;;;;;;2054107;28;20036;-85
2021/03/20 05:16:54;;;;;;;2.88;1.70;;;1.00;81.20;;;;;;2069668;28;20260;-84
2021/03/20 05:17:55;;;;;;;3.47;1.90;;;1.00;81.20;;;;;;2073514;28;20088;-83
2021/03/20 05:18:56;;;;;;;3.65;1.88;;;1.00;81.20;;;;;;2068699;28;20394;-83
2021/03/20 05:19:56;;;;;;;3.58;1.95;;;1.00;81.80;;;;;;2057439;28;20156;-84
2021/03/20 05:20:57;;;;;;;4.07;2.20;;;1.00;81.30;;;;;;2049257;28;20031;-84
2021/03/20 05:21:58;;;;;;;3.65;1.88;;;1.00;81.30;;;;;;2057088;28;20034;-84
2021/03/20 05:22:59;;;;;;;3.47;1.90;;;1.00;81.40;;;;;;2048909;28;20565;-84
2021/03/20 05:24:00;;;;;;;3.55;2.25;;;1.00;81.40;;;;;;2056872;28;20086;-84
2021/03/20 05:25:02;;;;;;;4.07;1.95;;;1.00;81.50;;;;;;2064818;28;20023;-84
2021/03/20 05:26:02;;;;;;;3.92;2.22;;;1.00;81.50;;;;;;2063604;28;20030;-84
2021/03/20 05:27:08;;;;;;;4.22;2.15;;;1.00;81.60;;;;;;2069919;28;20018;-85
2021/03/20 05:28:09;;;;;;;3.53;2.00;;;0.90;81.60;;;;;;2075856;28;20718;-84
2021/03/20 05:29:10;;;;;;;4.38;2.42;;;0.90;82.30;;;;;;2081429;28;20030;-84
2021/03/20 05:30:12;;;;;;;3.97;2.30;;;0.90;81.70;;;;;;2074574;28;20462;-84
2021/03/20 05:31:13;;;;;;;3.72;1.98;;;0.90;81.70;;;;;;2057134;28;20099;-84
2021/03/20 05:32:17;;;;;;;3.53;2.03;;;0.90;81.80;;;;;;2065364;28;20030;-84
2021/03/20 05:33:17;;;;;;;3.42;2.17;;;0.90;81.80;;;;;;2073605;28;20018;-84
2021/03/20 05:34:38;;;;;;;5.10;2.35;;;0.80;82.40;;;;;;2063887;28;20508;-84
2021/03/20 05:35:39;;;;;;;;;;;0.80;81.80;;;;;;2069098;28;20029;-83
2021/03/20 05:36:39;;;;;;;3.95;2.00;;;0.80;81.80;;;;;;2064756;28;19926;-84
2021/03/20 05:37:41;;;;;;;3.65;2.20;;;0.80;81.80;;;;;;2048957;28;20389;-84
2021/03/20 05:38:43;;;;;;;3.67;2.13;;;0.80;81.90;;;;;;2056660;28;20556;-84
2021/03/20 05:39:43;;;;;;;4.00;2.33;;;0.70;81.80;;;;;;2068767;28;20177;-84
2021/03/20 05:40:44;;;;;;;4.22;2.40;;;0.70;81.90;;;;;;2073610;28;20030;-84
2021/03/20 05:41:58;;;;;;;4.53;2.40;;;0.70;81.90;;;;;;2072931;28;20116;-84
2021/03/20 05:43:30;;;;;;;4.72;2.45;;;0.70;82.00;;;;;;2068176;28;20034;-84
2021/03/20 05:44:51;;;;;;;4.38;2.40;;;0.70;82.10;;;;;;2066173;28;20452;-84
2021/03/20 05:46:29;;;;;;;4.65;2.45;;;0.60;82.00;;;;;;2075288;28;20033;-84
2021/03/20 05:47:35;;;;;;;5.07;2.63;;;0.70;82.10;;;;;;2081218;28;20045;-82
2021/03/20 05:48:40;;;;;;;3.05;2.10;;;0.70;82.00;;;;;;2080155;28;20021;-84
2021/03/20 05:50:08;;;;;;;4.00;2.03;;;0.70;82.00;;;;;;2080414;28;20056;-84
2021/03/20 05:51:28;;;;;;;4.30;2.40;;;0.70;81.90;;;;;;2073725;28;20353;-84
2021/03/20 05:52:52;;;;;;;3.15;1.95;;;0.70;82.50;;;;;;2073977;28;20495;-84
2021/03/20 05:54:22;;;;;;;3.35;2.05;;;0.70;81.90;;;;;;2080801;28;20026;-84
2021/03/20 05:55:31;;;;;;;4.13;2.20;;;0.70;81.90;;;;;;2046434;28;20293;-84
2021/03/20 05:56:44;;;;;;;3.92;2.08;;;0.70;81.80;;;;;;2047583;28;20405;-84
2021/03/20 05:57:59;;;;;;;4.13;1.98;;;0.70;81.90;;;;;;2066609;28;20030;-84
2021/03/20 05:59:18;;;;;;;4.00;2.30;;;0.70;81.90;;;;;;2074362;28;20089;-84